sensor_id;sensor_type;location;lat;lon;timestamp;P1;durP1;ratioP1;P2;durP2;ratioP2
357;SDS011;167;47.558;7.602;2023-07-20T00:02:24;1.60;;;1.50;;
357;SDS011;167;47.558;7.602;2023-07-20T00:04:50;2.43;;;1.67;;
357;SDS011;167;47.558;7.602;2023-07-20T00:07:16;1.67;;;1.63;;
357;SDS011;167;47.558;7.602;2023-07-20T00:09:41;1.40;;;1.30;;
357;SDS011;167;47.558;7.602;2023-07-20T00:12:07;1.33;;;1.20;;
357;SDS011;167;47.558;7.602;2023-07-20T00:14:33;1.53;;;1.43;;
357;SDS011;167;47.558;7.602;2023-07-20T00:17:00;1.30;;;1.30;;
357;SDS011;167;47.558;7.602;2023-07-20T00:19:26;1.37;;;1.30;;
357;SDS011;167;47.558;7.602;2023-07-20T00:21:52;1.97;;;1.87;;
357;SDS011;167;47.558;7.602;2023-07-20T00:24:19;1.20;;;1.20;;
357;SDS011;167;47.558;7.602;2023-07-20T00:26:45;1.40;;;1.40;;
357;SDS011;167;47.558;7.602;2023-07-20T00:29:11;1.87;;;1.50;;
357;SDS011;167;47.558;7.602;2023-07-20T00:31:37;1.37;;;1.37;;
357;SDS011;167;47.558;7.602;2023-07-20T00:34:04;2.00;;;1.50;;
357;SDS011;167;47.558;7.602;2023-07-20T00:36:30;1.77;;;1.67;;
357;SDS011;167;47.558;7.602;2023-07-20T00:38:56;1.47;;;1.47;;
357;SDS011;167;47.558;7.602;2023-07-20T00:41:22;1.67;;;1.60;;
357;SDS011;167;47.558;7.602;2023-07-20T00:43:49;1.60;;;1.50;;
357;SDS011;167;47.558;7.602;2023-07-20T00:46:15;2.60;;;1.67;;
357;SDS011;167;47.558;7.602;2023-07-20T00:48:42;1.50;;;1.50;;
357;SDS011;167;47.558;7.602;2023-07-20T00:51:08;1.50;;;1.40;;
357;SDS011;167;47.558;7.602;2023-07-20T00:53:34;1.50;;;1.40;;
357;SDS011;167;47.558;7.602;2023-07-20T00:56:00;3.27;;;1.83;;
357;SDS011;167;47.558;7.602;2023-07-20T00:58:26;1.40;;;1.40;;
357;SDS011;167;47.558;7.602;2023-07-20T01:00:53;2.07;;;1.97;;
357;SDS011;167;47.558;7.602;2023-07-20T01:03:19;1.43;;;1.43;;
357;SDS011;167;47.558;7.602;2023-07-20T01:05:51;1.67;;;1.67;;
357;SDS011;167;47.558;7.602;2023-07-20T01:10:51;1.47;;;1.40;;
357;SDS011;167;47.558;7.602;2023-07-20T01:13:20;1.30;;;1.30;;
357;SDS011;167;47.558;7.602;2023-07-20T01:15:50;2.43;;;2.17;;
357;SDS011;167;47.558;7.602;2023-07-20T01:18:16;1.30;;;1.30;;
357;SDS011;167;47.558;7.602;2023-07-20T01:20:43;3.03;;;1.90;;
357;SDS011;167;47.558;7.602;2023-07-20T01:33:48;1.53;;;1.43;;
357;SDS011;167;47.558;7.602;2023-07-20T01:36:14;1.67;;;1.67;;
357;SDS011;167;47.558;7.602;2023-07-20T01:38:42;1.57;;;1.57;;
357;SDS011;167;47.558;7.602;2023-07-20T01:41:08;1.60;;;1.50;;
357;SDS011;167;47.558;7.602;2023-07-20T01:43:34;2.83;;;1.87;;
357;SDS011;167;47.558;7.602;2023-07-20T01:46:00;1.70;;;1.60;;
357;SDS011;167;47.558;7.602;2023-07-20T01:48:26;1.47;;;1.47;;
357;SDS011;167;47.558;7.602;2023-07-20T01:50:52;3.03;;;1.73;;
357;SDS011;167;47.558;7.602;2023-07-20T01:53:18;3.83;;;1.47;;
357;SDS011;167;47.558;7.602;2023-07-20T01:55:44;1.63;;;1.47;;
357;SDS011;167;47.558;7.602;2023-07-20T01:58:10;1.30;;;1.30;;
357;SDS011;167;47.558;7.602;2023-07-20T02:00:39;1.50;;;1.50;;
357;SDS011;167;47.558;7.602;2023-07-20T02:03:05;1.17;;;1.17;;
357;SDS011;167;47.558;7.602;2023-07-20T02:05:31;1.10;;;1.10;;
357;SDS011;167;47.558;7.602;2023-07-20T02:07:57;1.10;;;1.10;;
357;SDS011;167;47.558;7.602;2023-07-20T02:10:23;1.47;;;1.47;;
357;SDS011;167;47.558;7.602;2023-07-20T02:12:49;1.73;;;1.37;;
357;SDS011;167;47.558;7.602;2023-07-20T02:15:15;2.00;;;1.30;;
357;SDS011;167;47.558;7.602;2023-07-20T02:17:44;1.20;;;1.20;;
357;SDS011;167;47.558;7.602;2023-07-20T02:20:10;1.40;;;1.30;;
357;SDS011;167;47.558;7.602;2023-07-20T02:22:36;1.13;;;1.13;;
357;SDS011;167;47.558;7.602;2023-07-20T02:25:06;1.50;;;1.40;;
357;SDS011;167;47.558;7.602;2023-07-20T02:27:33;2.00;;;1.40;;
357;SDS011;167;47.558;7.602;2023-07-20T02:29:59;1.40;;;1.40;;
357;SDS011;167;47.558;7.602;2023-07-20T02:32:25;1.60;;;1.50;;
357;SDS011;167;47.558;7.602;2023-07-20T02:34:51;1.67;;;1.57;;
357;SDS011;167;47.558;7.602;2023-07-20T02:37:17;2.73;;;1.20;;
357;SDS011;167;47.558;7.602;2023-07-20T02:39:43;1.23;;;1.13;;
357;SDS011;167;47.558;7.602;2023-07-20T02:42:09;2.30;;;1.37;;
357;SDS011;167;47.558;7.602;2023-07-20T02:44:35;1.50;;;1.50;;
357;SDS011;167;47.558;7.602;2023-07-20T02:47:01;2.33;;;1.70;;
357;SDS011;167;47.558;7.602;2023-07-20T02:49:27;1.70;;;1.47;;
357;SDS011;167;47.558;7.602;2023-07-20T02:51:53;1.67;;;1.30;;
357;SDS011;167;47.558;7.602;2023-07-20T02:54:19;1.87;;;1.70;;
357;SDS011;167;47.558;7.602;2023-07-20T02:56:45;2.90;;;1.40;;
357;SDS011;167;47.558;7.602;2023-07-20T02:59:11;1.57;;;1.47;;
357;SDS011;167;47.558;7.602;2023-07-20T03:01:37;3.70;;;1.20;;
357;SDS011;167;47.558;7.602;2023-07-20T03:04:03;1.50;;;1.40;;
357;SDS011;167;47.558;7.602;2023-07-20T03:06:29;1.60;;;1.50;;
357;SDS011;167;47.558;7.602;2023-07-20T03:08:55;1.47;;;1.47;;
357;SDS011;167;47.558;7.602;2023-07-20T03:11:21;1.57;;;1.57;;
357;SDS011;167;47.558;7.602;2023-07-20T03:13:47;4.00;;;1.43;;
357;SDS011;167;47.558;7.602;2023-07-20T03:16:18;1.93;;;1.80;;
357;SDS011;167;47.558;7.602;2023-07-20T03:18:44;1.50;;;1.40;;
357;SDS011;167;47.558;7.602;2023-07-20T03:21:11;1.27;;;1.17;;
357;SDS011;167;47.558;7.602;2023-07-20T03:23:37;1.63;;;1.30;;
357;SDS011;167;47.558;7.602;2023-07-20T03:26:03;1.40;;;1.30;;
357;SDS011;167;47.558;7.602;2023-07-20T03:28:29;1.40;;;1.37;;
357;SDS011;167;47.558;7.602;2023-07-20T03:30:56;2.20;;;1.80;;
357;SDS011;167;47.558;7.602;2023-07-20T03:33:22;1.67;;;1.63;;
357;SDS011;167;47.558;7.602;2023-07-20T03:35:48;1.50;;;1.50;;
357;SDS011;167;47.558;7.602;2023-07-20T03:38:14;1.70;;;1.60;;
357;SDS011;167;47.558;7.602;2023-07-20T03:40:48;1.50;;;1.50;;
357;SDS011;167;47.558;7.602;2023-07-20T03:43:14;2.30;;;1.60;;
357;SDS011;167;47.558;7.602;2023-07-20T03:45:40;1.43;;;1.40;;
357;SDS011;167;47.558;7.602;2023-07-20T03:48:06;1.83;;;1.63;;
357;SDS011;167;47.558;7.602;2023-07-20T03:50:32;1.70;;;1.60;;
357;SDS011;167;47.558;7.602;2023-07-20T03:52:58;1.50;;;1.50;;
357;SDS011;167;47.558;7.602;2023-07-20T03:55:24;1.40;;;1.30;;
357;SDS011;167;47.558;7.602;2023-07-20T03:57:50;1.50;;;1.50;;
357;SDS011;167;47.558;7.602;2023-07-20T04:00:17;1.60;;;1.50;;
357;SDS011;167;47.558;7.602;2023-07-20T04:02:43;3.03;;;1.77;;
357;SDS011;167;47.558;7.602;2023-07-20T04:05:09;1.97;;;1.87;;
357;SDS011;167;47.558;7.602;2023-07-20T04:07:35;2.27;;;2.07;;
357;SDS011;167;47.558;7.602;2023-07-20T04:10:01;1.57;;;1.57;;
357;SDS011;167;47.558;7.602;2023-07-20T04:12:27;1.90;;;1.73;;
357;SDS011;167;47.558;7.602;2023-07-20T04:14:53;1.83;;;1.83;;
357;SDS011;167;47.558;7.602;2023-07-20T04:17:19;1.77;;;1.57;;
357;SDS011;167;47.558;7.602;2023-07-20T04:19:45;1.67;;;1.67;;
357;SDS011;167;47.558;7.602;2023-07-20T04:22:11;3.87;;;1.60;;
357;SDS011;167;47.558;7.602;2023-07-20T04:24:37;3.60;;;1.67;;
357;SDS011;167;47.558;7.602;2023-07-20T04:27:03;1.80;;;1.80;;
357;SDS011;167;47.558;7.602;2023-07-20T04:29:29;1.50;;;1.50;;
357;SDS011;167;47.558;7.602;2023-07-20T04:31:54;3.13;;;2.03;;
357;SDS011;167;47.558;7.602;2023-07-20T04:34:20;1.60;;;1.60;;
357;SDS011;167;47.558;7.602;2023-07-20T04:36:46;2.60;;;2.07;;
357;SDS011;167;47.558;7.602;2023-07-20T04:39:13;1.47;;;1.30;;
357;SDS011;167;47.558;7.602;2023-07-20T04:41:39;2.07;;;1.97;;
357;SDS011;167;47.558;7.602;2023-07-20T04:44:05;2.30;;;2.20;;
357;SDS011;167;47.558;7.602;2023-07-20T04:46:31;2.10;;;1.73;;
357;SDS011;167;47.558;7.602;2023-07-20T04:48:57;1.87;;;1.73;;
357;SDS011;167;47.558;7.602;2023-07-20T04:51:23;2.47;;;2.27;;
357;SDS011;167;47.558;7.602;2023-07-20T04:53:49;1.70;;;1.70;;
357;SDS011;167;47.558;7.602;2023-07-20T04:56:15;3.47;;;1.57;;
357;SDS011;167;47.558;7.602;2023-07-20T04:58:41;2.47;;;2.37;;
357;SDS011;167;47.558;7.602;2023-07-20T05:01:07;1.80;;;1.70;;
357;SDS011;167;47.558;7.602;2023-07-20T05:03:33;2.23;;;2.03;;
357;SDS011;167;47.558;7.602;2023-07-20T05:05:59;1.63;;;1.53;;
357;SDS011;167;47.558;7.602;2023-07-20T05:08:25;2.27;;;1.77;;
357;SDS011;167;47.558;7.602;2023-07-20T05:10:52;2.40;;;2.20;;
357;SDS011;167;47.558;7.602;2023-07-20T05:13:18;2.10;;;2.00;;
357;SDS011;167;47.558;7.602;2023-07-20T05:15:44;1.80;;;1.77;;
357;SDS011;167;47.558;7.602;2023-07-20T05:18:10;2.33;;;1.67;;
357;SDS011;167;47.558;7.602;2023-07-20T05:20:36;4.63;;;1.70;;
357;SDS011;167;47.558;7.602;2023-07-20T05:23:02;1.67;;;1.63;;
357;SDS011;167;47.558;7.602;2023-07-20T05:25:28;4.43;;;2.33;;
357;SDS011;167;47.558;7.602;2023-07-20T05:27:54;2.50;;;1.73;;
357;SDS011;167;47.558;7.602;2023-07-20T05:30:20;3.47;;;1.97;;
357;SDS011;167;47.558;7.602;2023-07-20T05:32:46;2.13;;;2.03;;
357;SDS011;167;47.558;7.602;2023-07-20T05:35:16;7.53;;;2.37;;
357;SDS011;167;47.558;7.602;2023-07-20T05:37:42;2.00;;;1.90;;
357;SDS011;167;47.558;7.602;2023-07-20T05:40:08;2.60;;;2.10;;
357;SDS011;167;47.558;7.602;2023-07-20T05:42:37;1.70;;;1.60;;
357;SDS011;167;47.558;7.602;2023-07-20T05:45:03;1.67;;;1.57;;
357;SDS011;167;47.558;7.602;2023-07-20T05:47:29;3.63;;;1.80;;
357;SDS011;167;47.558;7.602;2023-07-20T05:49:55;2.17;;;2.00;;
357;SDS011;167;47.558;7.602;2023-07-20T05:52:20;1.67;;;1.57;;
357;SDS011;167;47.558;7.602;2023-07-20T05:54:46;1.73;;;1.63;;
357;SDS011;167;47.558;7.602;2023-07-20T05:57:12;1.77;;;1.67;;
357;SDS011;167;47.558;7.602;2023-07-20T05:59:38;6.10;;;1.87;;
357;SDS011;167;47.558;7.602;2023-07-20T06:02:08;4.03;;;2.00;;
357;SDS011;167;47.558;7.602;2023-07-20T06:04:34;1.80;;;1.70;;
357;SDS011;167;47.558;7.602;2023-07-20T06:07:00;1.90;;;1.73;;
357;SDS011;167;47.558;7.602;2023-07-20T06:09:26;3.13;;;2.43;;
357;SDS011;167;47.558;7.602;2023-07-20T06:11:53;2.00;;;1.90;;
357;SDS011;167;47.558;7.602;2023-07-20T06:14:19;2.00;;;1.90;;
357;SDS011;167;47.558;7.602;2023-07-20T06:16:45;1.90;;;1.80;;
357;SDS011;167;47.558;7.602;2023-07-20T06:19:11;2.00;;;1.70;;
357;SDS011;167;47.558;7.602;2023-07-20T06:21:37;3.10;;;2.07;;
357;SDS011;167;47.558;7.602;2023-07-20T06:24:03;4.40;;;1.80;;
357;SDS011;167;47.558;7.602;2023-07-20T06:26:29;1.90;;;1.80;;
357;SDS011;167;47.558;7.602;2023-07-20T06:28:55;2.40;;;1.67;;
357;SDS011;167;47.558;7.602;2023-07-20T06:31:21;1.67;;;1.67;;
357;SDS011;167;47.558;7.602;2023-07-20T06:33:47;2.47;;;2.07;;
357;SDS011;167;47.558;7.602;2023-07-20T06:36:16;2.20;;;1.97;;
357;SDS011;167;47.558;7.602;2023-07-20T06:38:42;1.73;;;1.67;;
357;SDS011;167;47.558;7.602;2023-07-20T06:41:08;2.30;;;2.03;;
357;SDS011;167;47.558;7.602;2023-07-20T06:43:34;2.83;;;2.03;;
357;SDS011;167;47.558;7.602;2023-07-20T06:46:00;2.00;;;1.90;;
357;SDS011;167;47.558;7.602;2023-07-20T06:48:26;9.23;;;2.40;;
357;SDS011;167;47.558;7.602;2023-07-20T06:50:52;2.17;;;1.97;;
357;SDS011;167;47.558;7.602;2023-07-20T06:53:19;5.43;;;2.00;;
357;SDS011;167;47.558;7.602;2023-07-20T06:55:45;1.60;;;1.60;;
357;SDS011;167;47.558;7.602;2023-07-20T06:58:11;2.33;;;2.10;;
357;SDS011;167;47.558;7.602;2023-07-20T07:00:37;3.70;;;1.90;;
357;SDS011;167;47.558;7.602;2023-07-20T07:03:03;1.47;;;1.47;;
357;SDS011;167;47.558;7.602;2023-07-20T07:05:29;2.87;;;1.73;;
357;SDS011;167;47.558;7.602;2023-07-20T07:07:54;5.03;;;2.07;;
357;SDS011;167;47.558;7.602;2023-07-20T07:10:20;3.50;;;1.67;;
357;SDS011;167;47.558;7.602;2023-07-20T07:12:46;3.70;;;2.47;;
357;SDS011;167;47.558;7.602;2023-07-20T07:15:12;2.43;;;2.00;;
357;SDS011;167;47.558;7.602;2023-07-20T07:17:38;1.63;;;1.50;;
357;SDS011;167;47.558;7.602;2023-07-20T07:20:05;2.63;;;1.53;;
357;SDS011;167;47.558;7.602;2023-07-20T07:22:32;2.23;;;1.50;;
357;SDS011;167;47.558;7.602;2023-07-20T07:24:58;1.50;;;1.40;;
357;SDS011;167;47.558;7.602;2023-07-20T07:27:24;3.07;;;2.20;;
357;SDS011;167;47.558;7.602;2023-07-20T07:29:50;1.67;;;1.40;;
357;SDS011;167;47.558;7.602;2023-07-20T07:32:16;1.47;;;1.47;;
357;SDS011;167;47.558;7.602;2023-07-20T07:34:43;5.63;;;1.60;;
357;SDS011;167;47.558;7.602;2023-07-20T07:37:11;1.60;;;1.53;;
357;SDS011;167;47.558;7.602;2023-07-20T07:39:38;1.40;;;1.30;;
357;SDS011;167;47.558;7.602;2023-07-20T07:42:04;2.27;;;2.10;;
357;SDS011;167;47.558;7.602;2023-07-20T07:44:30;1.67;;;1.60;;
357;SDS011;167;47.558;7.602;2023-07-20T07:46:56;1.83;;;1.73;;
357;SDS011;167;47.558;7.602;2023-07-20T07:49:22;1.87;;;1.70;;
357;SDS011;167;47.558;7.602;2023-07-20T07:51:48;1.50;;;1.40;;
357;SDS011;167;47.558;7.602;2023-07-20T07:54:14;1.70;;;1.60;;
357;SDS011;167;47.558;7.602;2023-07-20T07:56:40;1.87;;;1.80;;
357;SDS011;167;47.558;7.602;2023-07-20T07:59:06;4.77;;;1.93;;
357;SDS011;167;47.558;7.602;2023-07-20T08:01:32;2.53;;;1.73;;
357;SDS011;167;47.558;7.602;2023-07-20T08:03:58;5.20;;;1.60;;
357;SDS011;167;47.558;7.602;2023-07-20T08:06:23;1.10;;;1.10;;
357;SDS011;167;47.558;7.602;2023-07-20T08:08:51;1.57;;;1.57;;
357;SDS011;167;47.558;7.602;2023-07-20T08:11:17;1.90;;;1.63;;
357;SDS011;167;47.558;7.602;2023-07-20T08:13:43;1.73;;;1.63;;
357;SDS011;167;47.558;7.602;2023-07-20T08:16:09;6.73;;;1.70;;
357;SDS011;167;47.558;7.602;2023-07-20T08:18:35;1.43;;;1.43;;
357;SDS011;167;47.558;7.602;2023-07-20T08:21:01;2.50;;;1.57;;
357;SDS011;167;47.558;7.602;2023-07-20T08:23:27;1.40;;;1.30;;
357;SDS011;167;47.558;7.602;2023-07-20T08:25:53;1.50;;;1.40;;
357;SDS011;167;47.558;7.602;2023-07-20T08:28:19;1.17;;;1.17;;
357;SDS011;167;47.558;7.602;2023-07-20T08:30:46;1.40;;;1.30;;
357;SDS011;167;47.558;7.602;2023-07-20T08:33:13;1.77;;;1.40;;
357;SDS011;167;47.558;7.602;2023-07-20T08:35:39;1.70;;;1.60;;
357;SDS011;167;47.558;7.602;2023-07-20T08:38:05;0.97;;;0.97;;
357;SDS011;167;47.558;7.602;2023-07-20T08:40:32;1.10;;;1.10;;
357;SDS011;167;47.558;7.602;2023-07-20T08:42:59;1.30;;;1.20;;
357;SDS011;167;47.558;7.602;2023-07-20T08:45:28;1.40;;;1.30;;
357;SDS011;167;47.558;7.602;2023-07-20T08:47:55;1.20;;;1.20;;
357;SDS011;167;47.558;7.602;2023-07-20T08:50:22;1.20;;;1.20;;
357;SDS011;167;47.558;7.602;2023-07-20T08:52:49;1.00;;;1.00;;
357;SDS011;167;47.558;7.602;2023-07-20T08:55:16;1.50;;;1.40;;
357;SDS011;167;47.558;7.602;2023-07-20T08:57:42;2.00;;;1.40;;
357;SDS011;167;47.558;7.602;2023-07-20T09:00:11;2.33;;;1.20;;
357;SDS011;167;47.558;7.602;2023-07-20T09:02:38;1.80;;;1.40;;
357;SDS011;167;47.558;7.602;2023-07-20T09:05:08;0.90;;;0.90;;
357;SDS011;167;47.558;7.602;2023-07-20T09:07:38;2.45;;;1.30;;
357;SDS011;167;47.558;7.602;2023-07-20T09:10:05;1.10;;;1.10;;
357;SDS011;167;47.558;7.602;2023-07-20T09:12:41;1.10;;;1.02;;
357;SDS011;167;47.558;7.602;2023-07-20T09:15:07;0.80;;;0.80;;
357;SDS011;167;47.558;7.602;2023-07-20T09:17:34;1.10;;;1.00;;
357;SDS011;167;47.558;7.602;2023-07-20T09:20:06;0.63;;;0.63;;
357;SDS011;167;47.558;7.602;2023-07-20T09:22:35;1.40;;;1.30;;
357;SDS011;167;47.558;7.602;2023-07-20T09:25:05;1.23;;;1.13;;
357;SDS011;167;47.558;7.602;2023-07-20T09:27:35;0.93;;;0.93;;
357;SDS011;167;47.558;7.602;2023-07-20T09:30:02;1.23;;;1.13;;
357;SDS011;167;47.558;7.602;2023-07-20T09:32:28;1.92;;;0.90;;
357;SDS011;167;47.558;7.602;2023-07-20T09:34:54;0.80;;;0.80;;
357;SDS011;167;47.558;7.602;2023-07-20T09:37:23;0.80;;;0.80;;
357;SDS011;167;47.558;7.602;2023-07-20T09:39:51;0.93;;;0.93;;
357;SDS011;167;47.558;7.602;2023-07-20T09:42:18;0.98;;;0.98;;
357;SDS011;167;47.558;7.602;2023-07-20T09:44:44;1.02;;;0.80;;
357;SDS011;167;47.558;7.602;2023-07-20T09:47:10;0.80;;;0.80;;
357;SDS011;167;47.558;7.602;2023-07-20T09:49:40;0.98;;;0.98;;
357;SDS011;167;47.558;7.602;2023-07-20T09:52:06;0.82;;;0.82;;
357;SDS011;167;47.558;7.602;2023-07-20T09:54:32;1.38;;;0.93;;
357;SDS011;167;47.558;7.602;2023-07-20T09:56:59;1.27;;;1.15;;
357;SDS011;167;47.558;7.602;2023-07-20T09:59:27;1.10;;;1.00;;
357;SDS011;167;47.558;7.602;2023-07-20T10:01:53;0.82;;;0.82;;
357;SDS011;167;47.558;7.602;2023-07-20T10:04:22;1.73;;;1.58;;
357;SDS011;167;47.558;7.602;2023-07-20T10:06:48;1.00;;;0.90;;
357;SDS011;167;47.558;7.602;2023-07-20T10:09:15;0.90;;;0.90;;
357;SDS011;167;47.558;7.602;2023-07-20T10:11:45;1.17;;;1.17;;
357;SDS011;167;47.558;7.602;2023-07-20T10:14:11;1.00;;;1.00;;
357;SDS011;167;47.558;7.602;2023-07-20T10:16:39;1.30;;;1.20;;
357;SDS011;167;47.558;7.602;2023-07-20T10:19:22;1.20;;;1.17;;
357;SDS011;167;47.558;7.602;2023-07-20T10:21:59;1.57;;;1.47;;
357;SDS011;167;47.558;7.602;2023-07-20T10:24:27;1.47;;;1.40;;
357;SDS011;167;47.558;7.602;2023-07-20T10:26:54;3.40;;;3.30;;
357;SDS011;167;47.558;7.602;2023-07-20T10:29:21;1.33;;;1.00;;
357;SDS011;167;47.558;7.602;2023-07-20T10:31:47;1.33;;;1.23;;
357;SDS011;167;47.558;7.602;2023-07-20T10:34:14;1.50;;;1.40;;
357;SDS011;167;47.558;7.602;2023-07-20T10:36:44;1.13;;;1.03;;
357;SDS011;167;47.558;7.602;2023-07-20T10:39:31;3.13;;;1.15;;
357;SDS011;167;47.558;7.602;2023-07-20T10:42:01;1.30;;;1.20;;
357;SDS011;167;47.558;7.602;2023-07-20T10:44:28;1.20;;;1.10;;
357;SDS011;167;47.558;7.602;2023-07-20T10:47:06;0.80;;;0.80;;
357;SDS011;167;47.558;7.602;2023-07-20T10:49:34;1.03;;;1.03;;
357;SDS011;167;47.558;7.602;2023-07-20T10:52:03;4.77;;;1.60;;
357;SDS011;167;47.558;7.602;2023-07-20T10:56:56;1.50;;;1.40;;
357;SDS011;167;47.558;7.602;2023-07-20T11:01:49;1.63;;;1.20;;
357;SDS011;167;47.558;7.602;2023-07-20T11:04:15;1.10;;;1.10;;
357;SDS011;167;47.558;7.602;2023-07-20T11:06:44;1.98;;;1.08;;
357;SDS011;167;47.558;7.602;2023-07-20T11:09:11;3.30;;;1.20;;
357;SDS011;167;47.558;7.602;2023-07-20T11:11:47;0.98;;;0.98;;
357;SDS011;167;47.558;7.602;2023-07-20T11:14:23;1.15;;;1.05;;
357;SDS011;167;47.558;7.602;2023-07-20T11:16:50;0.82;;;0.82;;
357;SDS011;167;47.558;7.602;2023-07-20T11:19:17;0.95;;;0.90;;
357;SDS011;167;47.558;7.602;2023-07-20T11:21:47;1.10;;;1.00;;
357;SDS011;167;47.558;7.602;2023-07-20T11:24:15;1.70;;;1.60;;
357;SDS011;167;47.558;7.602;2023-07-20T11:26:53;1.23;;;1.13;;
357;SDS011;167;47.558;7.602;2023-07-20T11:29:20;1.87;;;1.20;;
357;SDS011;167;47.558;7.602;2023-07-20T11:31:48;1.08;;;1.08;;
357;SDS011;167;47.558;7.602;2023-07-20T11:34:15;1.08;;;1.08;;
357;SDS011;167;47.558;7.602;2023-07-20T11:36:42;1.08;;;1.00;;
357;SDS011;167;47.558;7.602;2023-07-20T11:39:09;1.00;;;0.90;;
357;SDS011;167;47.558;7.602;2023-07-20T11:41:35;0.90;;;0.90;;
357;SDS011;167;47.558;7.602;2023-07-20T11:44:01;0.98;;;0.98;;
357;SDS011;167;47.558;7.602;2023-07-20T11:46:28;0.88;;;0.88;;
357;SDS011;167;47.558;7.602;2023-07-20T11:49:00;0.80;;;0.80;;
357;SDS011;167;47.558;7.602;2023-07-20T11:51:26;0.93;;;0.93;;
357;SDS011;167;47.558;7.602;2023-07-20T11:53:53;0.90;;;0.90;;
357;SDS011;167;47.558;7.602;2023-07-20T11:56:19;1.00;;;0.93;;
357;SDS011;167;47.558;7.602;2023-07-20T11:58:45;0.80;;;0.80;;
357;SDS011;167;47.558;7.602;2023-07-20T12:01:12;0.90;;;0.90;;
357;SDS011;167;47.558;7.602;2023-07-20T12:03:38;1.25;;;1.10;;
357;SDS011;167;47.558;7.602;2023-07-20T12:06:08;1.17;;;0.80;;
357;SDS011;167;47.558;7.602;2023-07-20T12:08:34;1.80;;;1.00;;
357;SDS011;167;47.558;7.602;2023-07-20T12:11:00;1.17;;;1.10;;
357;SDS011;167;47.558;7.602;2023-07-20T12:13:44;0.90;;;0.90;;
357;SDS011;167;47.558;7.602;2023-07-20T12:16:11;1.20;;;1.20;;
357;SDS011;167;47.558;7.602;2023-07-20T12:18:37;0.93;;;0.90;;
357;SDS011;167;47.558;7.602;2023-07-20T12:21:03;0.97;;;0.97;;
357;SDS011;167;47.558;7.602;2023-07-20T12:23:40;1.13;;;1.13;;
357;SDS011;167;47.558;7.602;2023-07-20T12:26:07;1.20;;;1.20;;
357;SDS011;167;47.558;7.602;2023-07-20T12:28:35;0.90;;;0.90;;
357;SDS011;167;47.558;7.602;2023-07-20T12:31:01;1.20;;;1.10;;
357;SDS011;167;47.558;7.602;2023-07-20T12:33:27;1.60;;;1.23;;
357;SDS011;167;47.558;7.602;2023-07-20T12:35:53;0.77;;;0.77;;
357;SDS011;167;47.558;7.602;2023-07-20T12:38:21;0.97;;;0.97;;
357;SDS011;167;47.558;7.602;2023-07-20T12:40:48;1.37;;;1.00;;
357;SDS011;167;47.558;7.602;2023-07-20T12:43:14;0.80;;;0.80;;
357;SDS011;167;47.558;7.602;2023-07-20T12:45:40;2.53;;;1.30;;
357;SDS011;167;47.558;7.602;2023-07-20T12:48:06;1.60;;;1.07;;
357;SDS011;167;47.558;7.602;2023-07-20T12:50:32;1.10;;;1.00;;
357;SDS011;167;47.558;7.602;2023-07-20T12:52:58;1.00;;;1.00;;
357;SDS011;167;47.558;7.602;2023-07-20T12:55:24;1.90;;;1.20;;
357;SDS011;167;47.558;7.602;2023-07-20T12:57:50;1.20;;;1.10;;
357;SDS011;167;47.558;7.602;2023-07-20T13:00:17;1.30;;;1.23;;
357;SDS011;167;47.558;7.602;2023-07-20T13:02:43;1.30;;;1.17;;
357;SDS011;167;47.558;7.602;2023-07-20T13:05:09;1.10;;;1.00;;
357;SDS011;167;47.558;7.602;2023-07-20T13:07:36;1.50;;;1.40;;
357;SDS011;167;47.558;7.602;2023-07-20T13:10:02;1.30;;;1.30;;
357;SDS011;167;47.558;7.602;2023-07-20T13:12:29;1.17;;;1.13;;
357;SDS011;167;47.558;7.602;2023-07-20T13:14:55;1.53;;;1.20;;
357;SDS011;167;47.558;7.602;2023-07-20T13:17:22;1.33;;;1.27;;
357;SDS011;167;47.558;7.602;2023-07-20T13:19:48;1.30;;;1.20;;
357;SDS011;167;47.558;7.602;2023-07-20T13:22:14;2.47;;;1.50;;
357;SDS011;167;47.558;7.602;2023-07-20T13:24:40;1.10;;;1.10;;
357;SDS011;167;47.558;7.602;2023-07-20T13:27:06;1.00;;;1.00;;
357;SDS011;167;47.558;7.602;2023-07-20T13:29:32;1.10;;;1.00;;
357;SDS011;167;47.558;7.602;2023-07-20T13:31:58;1.00;;;1.00;;
357;SDS011;167;47.558;7.602;2023-07-20T13:34:27;1.40;;;1.40;;
357;SDS011;167;47.558;7.602;2023-07-20T13:36:53;1.87;;;1.20;;
357;SDS011;167;47.558;7.602;2023-07-20T13:39:19;1.40;;;1.27;;
357;SDS011;167;47.558;7.602;2023-07-20T13:41:49;1.10;;;1.10;;
357;SDS011;167;47.558;7.602;2023-07-20T13:44:15;0.87;;;0.87;;
357;SDS011;167;47.558;7.602;2023-07-20T13:46:41;0.90;;;0.90;;
357;SDS011;167;47.558;7.602;2023-07-20T13:49:07;1.30;;;1.20;;
357;SDS011;167;47.558;7.602;2023-07-20T13:51:33;1.30;;;1.00;;
357;SDS011;167;47.558;7.602;2023-07-20T13:53:59;0.90;;;0.90;;
357;SDS011;167;47.558;7.602;2023-07-20T13:56:25;1.10;;;1.10;;
357;SDS011;167;47.558;7.602;2023-07-20T13:58:52;0.80;;;0.80;;
357;SDS011;167;47.558;7.602;2023-07-20T14:01:18;0.70;;;0.70;;
357;SDS011;167;47.558;7.602;2023-07-20T14:03:44;0.97;;;0.97;;
357;SDS011;167;47.558;7.602;2023-07-20T14:06:10;4.60;;;1.37;;
357;SDS011;167;47.558;7.602;2023-07-20T14:08:38;1.00;;;0.90;;
357;SDS011;167;47.558;7.602;2023-07-20T14:11:05;2.37;;;1.00;;
357;SDS011;167;47.558;7.602;2023-07-20T14:13:31;1.00;;;0.93;;
357;SDS011;167;47.558;7.602;2023-07-20T14:15:57;0.93;;;0.90;;
357;SDS011;167;47.558;7.602;2023-07-20T14:18:23;1.00;;;1.00;;
357;SDS011;167;47.558;7.602;2023-07-20T14:20:49;1.57;;;1.13;;
357;SDS011;167;47.558;7.602;2023-07-20T14:23:15;0.80;;;0.80;;
357;SDS011;167;47.558;7.602;2023-07-20T14:25:41;1.07;;;0.97;;
357;SDS011;167;47.558;7.602;2023-07-20T14:28:07;0.90;;;0.90;;
357;SDS011;167;47.558;7.602;2023-07-20T14:30:33;1.60;;;1.20;;
357;SDS011;167;47.558;7.602;2023-07-20T14:32:59;0.90;;;0.90;;
357;SDS011;167;47.558;7.602;2023-07-20T14:35:25;0.90;;;0.90;;
357;SDS011;167;47.558;7.602;2023-07-20T14:37:51;1.40;;;1.30;;
357;SDS011;167;47.558;7.602;2023-07-20T14:40:17;5.50;;;1.33;;
357;SDS011;167;47.558;7.602;2023-07-20T14:42:43;1.43;;;0.93;;
357;SDS011;167;47.558;7.602;2023-07-20T14:45:09;1.37;;;1.27;;
357;SDS011;167;47.558;7.602;2023-07-20T14:47:35;3.23;;;1.07;;
357;SDS011;167;47.558;7.602;2023-07-20T14:50:02;1.63;;;1.10;;
357;SDS011;167;47.558;7.602;2023-07-20T14:52:28;0.90;;;0.90;;
357;SDS011;167;47.558;7.602;2023-07-20T14:54:54;0.80;;;0.80;;
357;SDS011;167;47.558;7.602;2023-07-20T14:57:20;0.97;;;0.97;;
357;SDS011;167;47.558;7.602;2023-07-20T14:59:48;1.00;;;1.00;;
357;SDS011;167;47.558;7.602;2023-07-20T15:02:14;0.83;;;0.83;;
357;SDS011;167;47.558;7.602;2023-07-20T15:04:50;1.00;;;0.90;;
357;SDS011;167;47.558;7.602;2023-07-20T15:07:17;1.03;;;1.03;;
357;SDS011;167;47.558;7.602;2023-07-20T15:09:44;1.00;;;1.00;;
357;SDS011;167;47.558;7.602;2023-07-20T15:12:10;1.10;;;1.10;;
357;SDS011;167;47.558;7.602;2023-07-20T15:14:40;0.90;;;0.87;;
357;SDS011;167;47.558;7.602;2023-07-20T15:17:07;0.90;;;0.90;;
357;SDS011;167;47.558;7.602;2023-07-20T15:19:33;1.27;;;1.20;;
357;SDS011;167;47.558;7.602;2023-07-20T15:22:00;0.77;;;0.77;;
357;SDS011;167;47.558;7.602;2023-07-20T15:24:26;2.20;;;0.83;;
357;SDS011;167;47.558;7.602;2023-07-20T15:26:52;0.80;;;0.80;;
357;SDS011;167;47.558;7.602;2023-07-20T15:29:18;0.73;;;0.73;;
357;SDS011;167;47.558;7.602;2023-07-20T15:31:45;0.77;;;0.77;;
357;SDS011;167;47.558;7.602;2023-07-20T15:34:11;0.67;;;0.67;;
357;SDS011;167;47.558;7.602;2023-07-20T15:36:39;1.43;;;1.23;;
357;SDS011;167;47.558;7.602;2023-07-20T15:39:05;1.10;;;1.03;;
357;SDS011;167;47.558;7.602;2023-07-20T15:41:31;1.60;;;1.20;;
357;SDS011;167;47.558;7.602;2023-07-20T15:43:57;1.23;;;1.23;;
357;SDS011;167;47.558;7.602;2023-07-20T15:49:05;1.50;;;0.93;;
357;SDS011;167;47.558;7.602;2023-07-20T15:51:31;0.93;;;0.93;;
357;SDS011;167;47.558;7.602;2023-07-20T15:53:57;1.17;;;1.03;;
357;SDS011;167;47.558;7.602;2023-07-20T15:56:23;0.90;;;0.90;;
357;SDS011;167;47.558;7.602;2023-07-20T15:58:49;1.40;;;1.30;;
357;SDS011;167;47.558;7.602;2023-07-20T16:01:15;1.00;;;1.00;;
357;SDS011;167;47.558;7.602;2023-07-20T16:03:41;1.07;;;1.07;;